Time,TemperatureF,DewpointF,PressureIn,WindDirection,WindDirectionDegrees,WindSpeedMPH,WindSpeedGustMPH,Humidity,HourlyPrecipIn,Conditions,Clouds,dailyrainin,SoftwareType,DateUTC
2013-01-27 00:00:00,60.0,56.4,30.23,NW,304,1.0,2.0,88,0.00,,SKC,0.00,VWS V14.01,2013-01-27 05:00:00,
2013-01-27 00:05:00,59.9,56.3,30.23,NW,304,1.0,2.0,88,0.00,,SKC,0.00,VWS V14.01,2013-01-27 05:05:00,
2013-01-27 00:10:00,59.8,56.2,30.23,ENE,69,7.0,8.0,88,0.00,,SKC,0.00,VWS V14.01,2013-01-27 05:10:00,
2013-01-27 00:15:00,58.8,55.3,30.23,ENE,66,2.0,9.0,88,0.00,,SKC,0.00,VWS V14.01,2013-01-27 05:15:00,
2013-01-27 00:16:00,58.7,55.2,30.23,ENE,66,2.0,3.0,88,0.00,,SKC,0.00,VWS V14.01,2013-01-27 05:16:00,
2013-01-27 00:21:00,58.2,55.0,30.23,ENE,66,2.0,4.0,89,0.00,,SKC,0.00,VWS V14.01,2013-01-27 05:21:00,
2013-01-27 00:25:00,58.0,54.8,30.23,ENE,66,0.0,4.0,89,0.00,,SKC,0.00,VWS V14.01,2013-01-27 05:25:00,
2013-01-27 00:30:00,57.7,54.8,30.23,ENE,66,0.0,4.0,90,0.00,,SKC,0.00,VWS V14.01,2013-01-27 05:30:00,
2013-01-27 00:35:00,57.5,54.6,30.23,ENE,66,3.0,3.0,90,0.00,,SKC,0.00,VWS V14.01,2013-01-27 05:35:00,
2013-01-27 00:40:00,57.5,54.9,30.23,ENE,66,4.0,4.0,91,0.00,,SKC,0.00,VWS V14.01,2013-01-27 05:40:00,
2013-01-27 00:45:00,57.7,55.1,30.23,ENE,66,3.0,4.0,91,0.00,,SKC,0.00,VWS V14.01,2013-01-27 05:45:00,
2013-01-27 00:50:00,57.7,55.1,30.23,ENE,66,1.0,4.0,91,0.00,,SKC,0.00,VWS V14.01,2013-01-27 05:50:00,
2013-01-27 00:55:00,57.8,55.2,30.23,ENE,66,1.0,3.0,91,0.00,,SKC,0.00,VWS V14.01,2013-01-27 05:55:00,
2013-01-27 01:00:00,58.0,55.7,30.23,ENE,66,2.0,3.0,92,0.00,,SKC,0.00,VWS V14.01,2013-01-27 06:00:00,
2013-01-27 01:05:00,58.1,55.8,30.23,ENE,66,3.0,4.0,92,0.00,,SKC,0.00,VWS V14.01,2013-01-27 06:05:00,
2013-01-27 01:10:00,58.2,55.9,30.23,ENE,66,2.0,3.0,92,0.00,,SKC,0.00,VWS V14.01,2013-01-27 06:10:00,
2013-01-27 01:15:00,58.2,55.9,30.23,ENE,66,3.0,3.0,92,0.00,,SKC,0.00,VWS V14.01,2013-01-27 06:15:00,
2013-01-27 01:20:00,58.3,55.7,30.23,NE,51,4.0,4.0,91,0.00,,SKC,0.00,VWS V14.01,2013-01-27 06:20:00,
2013-01-27 01:25:00,58.3,55.7,30.23,NE,34,2.0,5.0,91,0.00,,SKC,0.00,VWS V14.01,2013-01-27 06:25:00,
2013-01-27 01:30:00,58.3,55.7,30.23,NE,34,3.0,4.0,91,0.00,,SKC,0.00,VWS V14.01,2013-01-27 06:30:00,
2013-01-27 01:35:00,58.3,55.7,30.23,NE,34,1.0,4.0,91,0.00,,SKC,0.00,VWS V14.01,2013-01-27 06:35:00,
2013-01-27 01:40:00,58.4,55.8,30.23,NE,34,2.0,4.0,91,0.00,,SKC,0.00,VWS V14.01,2013-01-27 06:40:00,
2013-01-27 01:45:00,58.4,55.8,30.23,NE,34,2.0,5.0,91,0.00,,SKC,0.00,VWS V14.01,2013-01-27 06:45:00,
2013-01-27 01:50:00,58.3,55.7,30.23,NE,34,0.0,3.0,91,0.00,,SKC,0.00,VWS V14.01,2013-01-27 06:50:00,
2013-01-27 01:55:00,58.3,55.7,30.24,NE,34,0.0,2.0,91,0.00,,SKC,0.00,VWS V14.01,2013-01-27 06:55:00,
2013-01-27 02:00:00,58.2,55.6,30.24,NE,34,0.0,2.0,91,0.00,,SKC,0.00,VWS V14.01,2013-01-27 07:00:00,
2013-01-27 02:05:00,58.1,55.5,30.23,NE,34,1.0,2.0,91,0.00,,SKC,0.00,VWS V14.01,2013-01-27 07:05:00,
2013-01-27 02:13:00,58.1,55.5,30.23,NE,34,2.0,3.0,91,0.00,,SKC,0.00,VWS V14.01,2013-01-27 07:13:00,
2013-01-27 02:18:00,58.1,55.8,30.23,NE,34,0.0,2.0,92,0.00,,SKC,0.00,VWS V14.01,2013-01-27 07:18:00,
2013-01-27 02:23:00,58.1,55.8,30.23,NE,34,0.0,1.0,92,0.00,,SKC,0.00,VWS V14.01,2013-01-27 07:23:00,
2013-01-27 02:28:00,57.7,55.1,30.23,NE,34,0.0,0.0,91,0.00,,SKC,0.00,VWS V14.01,2013-01-27 07:28:00,
2013-01-27 02:33:00,57.4,54.8,30.23,NE,34,0.0,1.0,91,0.00,,SKC,0.00,VWS V14.01,2013-01-27 07:33:00,
2013-01-27 02:38:00,57.5,55.2,30.23,NE,34,1.0,2.0,92,0.00,,SKC,0.00,VWS V14.01,2013-01-27 07:38:00,
2013-01-27 02:43:00,57.7,55.4,30.23,NE,34,1.0,2.0,92,0.00,,SKC,0.00,VWS V14.01,2013-01-27 07:43:00,
2013-01-27 02:48:00,57.7,55.4,30.23,NE,34,1.0,1.0,92,0.00,,SKC,0.00,VWS V14.01,2013-01-27 07:48:00,
2013-01-27 02:53:00,57.4,55.1,30.23,East,80,2.0,3.0,92,0.00,,SKC,0.00,VWS V14.01,2013-01-27 07:53:00,
2013-01-27 02:58:00,57.3,55.0,30.23,East,80,0.0,2.0,92,0.00,,SKC,0.00,VWS V14.01,2013-01-27 07:58:00,
2013-01-27 03:03:00,57.3,55.3,30.23,East,80,0.0,1.0,93,0.00,,SKC,0.00,VWS V14.01,2013-01-27 08:03:00,
2013-01-27 03:08:00,57.3,55.3,30.23,East,80,0.0,0.0,93,0.00,,SKC,0.00,VWS V14.01,2013-01-27 08:08:00,
2013-01-27 03:13:00,57.4,55.4,30.23,East,80,0.0,0.0,93,0.00,,SKC,0.00,VWS V14.01,2013-01-27 08:13:00,
2013-01-27 03:18:00,57.5,55.5,30.23,East,80,0.0,0.0,93,0.00,,SKC,0.00,VWS V14.01,2013-01-27 08:18:00,
2013-01-27 03:23:00,57.4,55.4,30.23,East,80,0.0,0.0,93,0.00,,SKC,0.00,VWS V14.01,2013-01-27 08:23:00,
2013-01-27 03:28:00,57.3,55.3,30.23,East,80,0.0,1.0,93,0.00,,SKC,0.00,VWS V14.01,2013-01-27 08:28:00,
2013-01-27 03:33:00,57.2,55.2,30.23,East,80,0.0,0.0,93,0.00,,SKC,0.00,VWS V14.01,2013-01-27 08:33:00,
2013-01-27 03:38:00,57.1,55.1,30.23,East,80,0.0,0.0,93,0.00,,SKC,0.00,VWS V14.01,2013-01-27 08:38:00,
2013-01-27 03:43:00,57.1,55.1,30.23,East,80,0.0,0.0,93,0.00,,SKC,0.00,VWS V14.01,2013-01-27 08:43:00,
2013-01-27 03:48:00,57.2,55.5,30.23,East,80,1.0,2.0,94,0.00,,SKC,0.00,VWS V14.01,2013-01-27 08:48:00,
2013-01-27 03:53:00,57.3,55.6,30.23,East,80,3.0,3.0,94,0.00,,SKC,0.00,VWS V14.01,2013-01-27 08:53:00,
2013-01-27 03:58:00,57.5,55.8,30.23,East,80,0.0,2.0,94,0.00,,SKC,0.00,VWS V14.01,2013-01-27 08:58:00,
2013-01-27 04:03:00,57.3,55.6,30.23,East,80,0.0,1.0,94,0.00,,SKC,0.00,VWS V14.01,2013-01-27 09:03:00,
2013-01-27 04:08:00,57.2,55.2,30.23,East,80,0.0,1.0,93,0.00,,SKC,0.00,VWS V14.01,2013-01-27 09:08:00,
2013-01-27 04:13:00,57.0,55.0,30.23,East,80,0.0,0.0,93,0.00,,SKC,0.00,VWS V14.01,2013-01-27 09:13:00,
2013-01-27 04:18:00,57.1,55.4,30.23,East,80,0.0,1.0,94,0.00,,SKC,0.00,VWS V14.01,2013-01-27 09:18:00,
2013-01-27 04:23:00,57.3,55.6,30.23,East,80,3.0,3.0,94,0.00,,SKC,0.00,VWS V14.01,2013-01-27 09:23:00,
2013-01-27 04:28:00,57.4,55.7,30.23,East,79,3.0,5.0,94,0.00,,SKC,0.00,VWS V14.01,2013-01-27 09:28:00,
2013-01-27 04:33:00,57.4,55.7,30.23,East,79,2.0,3.0,94,0.00,,SKC,0.00,VWS V14.01,2013-01-27 09:33:00,
2013-01-27 04:38:00,57.4,55.7,30.24,East,79,0.0,2.0,94,0.00,,SKC,0.00,VWS V14.01,2013-01-27 09:38:00,
2013-01-27 04:43:00,57.1,55.4,30.24,East,79,0.0,1.0,94,0.00,,SKC,0.00,VWS V14.01,2013-01-27 09:43:00,
2013-01-27 04:48:00,56.9,55.2,30.24,East,79,1.0,1.0,94,0.00,,SKC,0.00,VWS V14.01,2013-01-27 09:48:00,
2013-01-27 04:53:00,57.1,55.4,30.23,East,79,0.0,1.0,94,0.00,,SKC,0.00,VWS V14.01,2013-01-27 09:53:00,
2013-01-27 04:58:00,57.2,55.5,30.23,East,79,0.0,2.0,94,0.00,,SKC,0.00,VWS V14.01,2013-01-27 09:58:00,
2013-01-27 05:03:00,57.2,55.5,30.23,East,79,0.0,1.0,94,0.00,,SKC,0.00,VWS V14.01,2013-01-27 10:03:00,
2013-01-27 05:08:00,57.1,55.4,30.24,East,79,1.0,1.0,94,0.00,,SKC,0.00,VWS V14.01,2013-01-27 10:08:00,
2013-01-27 05:13:00,57.1,55.4,30.24,East,79,2.0,3.0,94,0.00,,SKC,0.00,VWS V14.01,2013-01-27 10:13:00,
2013-01-27 05:18:00,57.1,55.7,30.24,East,79,2.0,3.0,95,0.00,,SKC,0.00,VWS V14.01,2013-01-27 10:18:00,
2013-01-27 05:23:00,57.1,55.4,30.24,East,79,1.0,3.0,94,0.00,,SKC,0.00,VWS V14.01,2013-01-27 10:23:00,
2013-01-27 05:28:00,56.9,55.2,30.24,East,79,1.0,3.0,94,0.00,,SKC,0.00,VWS V14.01,2013-01-27 10:28:00,
2013-01-27 05:33:00,56.8,55.1,30.24,East,79,3.0,3.0,94,0.00,,SKC,0.00,VWS V14.01,2013-01-27 10:33:00,
2013-01-27 05:38:00,56.6,54.9,30.24,East,79,3.0,5.0,94,0.00,,SKC,0.00,VWS V14.01,2013-01-27 10:38:00,
2013-01-27 05:43:00,56.6,55.2,30.24,NE,36,3.0,5.0,95,0.00,,SKC,0.00,VWS V14.01,2013-01-27 10:43:00,
2013-01-27 05:48:00,56.5,55.1,30.24,NE,34,3.0,4.0,95,0.00,,SKC,0.00,VWS V14.01,2013-01-27 10:48:00,
2013-01-27 05:53:00,56.3,54.9,30.25,NE,34,4.0,5.0,95,0.00,,SKC,0.00,VWS V14.01,2013-01-27 10:53:00,
2013-01-27 05:58:00,56.2,54.8,30.25,NE,34,3.0,5.0,95,0.00,,SKC,0.00,VWS V14.01,2013-01-27 10:58:00,
2013-01-27 06:03:00,56.1,54.7,30.25,NE,34,3.0,4.0,95,0.00,,SKC,0.00,VWS V14.01,2013-01-27 11:03:00,
2013-01-27 06:08:00,56.1,54.7,30.25,NE,34,5.0,6.0,95,0.00,,SKC,0.00,VWS V14.01,2013-01-27 11:08:00,
2013-01-27 06:13:00,56.1,54.7,30.25,NE,34,4.0,4.0,95,0.00,,SKC,0.00,VWS V14.01,2013-01-27 11:13:00,
2013-01-27 06:18:00,56.1,54.7,30.25,NE,34,3.0,5.0,95,0.00,,SKC,0.00,VWS V14.01,2013-01-27 11:18:00,
2013-01-27 06:23:00,56.0,54.6,30.25,NNE,32,4.0,5.0,95,0.00,,SKC,0.00,VWS V14.01,2013-01-27 11:23:00,
2013-01-27 06:28:00,56.0,54.9,30.25,NNE,32,3.0,5.0,96,0.00,,SKC,0.00,VWS V14.01,2013-01-27 11:28:00,
2013-01-27 06:33:00,55.8,54.4,30.25,NNE,32,3.0,4.0,95,0.00,,SKC,0.00,VWS V14.01,2013-01-27 11:33:00,
2013-01-27 06:38:00,55.7,54.3,30.25,NNE,28,4.0,5.0,95,0.00,,SKC,0.00,VWS V14.01,2013-01-27 11:38:00,
2013-01-27 06:43:00,55.6,54.2,30.25,NNE,22,2.0,5.0,95,0.01,,SKC,0.01,VWS V14.01,2013-01-27 11:43:00,
2013-01-27 06:48:00,55.5,54.4,30.26,NNE,20,4.0,5.0,96,0.01,,SKC,0.01,VWS V14.01,2013-01-27 11:48:00,
2013-01-27 06:53:00,55.6,54.5,30.26,NNE,20,4.0,4.0,96,0.01,,SKC,0.01,VWS V14.01,2013-01-27 11:53:00,
2013-01-27 06:58:00,55.6,54.5,30.26,NE,35,2.0,4.0,96,0.01,,SKC,0.01,VWS V14.01,2013-01-27 11:58:00,
2013-01-27 07:03:00,55.6,54.5,30.26,NE,35,3.0,5.0,96,0.01,,SKC,0.01,VWS V14.01,2013-01-27 12:03:00,
2013-01-27 07:08:00,55.8,54.7,30.26,NE,35,2.0,3.0,96,0.01,,SKC,0.01,VWS V14.01,2013-01-27 12:08:00,
2013-01-27 07:13:00,55.8,54.7,30.26,NE,35,2.0,3.0,96,0.01,,SKC,0.01,VWS V14.01,2013-01-27 12:13:00,
2013-01-27 07:18:00,55.7,54.6,30.26,NE,35,2.0,2.0,96,0.01,,SKC,0.01,VWS V14.01,2013-01-27 12:18:00,
2013-01-27 07:23:00,55.5,54.4,30.26,NE,35,1.0,4.0,96,0.01,,SKC,0.01,VWS V14.01,2013-01-27 12:23:00,
2013-01-27 07:28:00,55.3,54.2,30.26,NE,35,0.0,3.0,96,0.01,,SKC,0.01,VWS V14.01,2013-01-27 12:28:00,
2013-01-27 07:33:00,55.1,54.0,30.26,NE,35,2.0,2.0,96,0.01,,SKC,0.01,VWS V14.01,2013-01-27 12:33:00,
2013-01-27 07:38:00,54.8,53.7,30.26,NE,35,3.0,3.0,96,0.01,,SKC,0.01,VWS V14.01,2013-01-27 12:38:00,
2013-01-27 07:43:00,54.7,53.6,30.27,NE,35,2.0,2.0,96,0.00,,SKC,0.01,VWS V14.01,2013-01-27 12:43:00,
2013-01-27 07:48:00,54.6,53.5,30.27,NE,35,1.0,2.0,96,0.00,,SKC,0.01,VWS V14.01,2013-01-27 12:48:00,
2013-01-27 07:53:00,54.5,53.4,30.27,NE,35,0.0,1.0,96,0.00,,SKC,0.01,VWS V14.01,2013-01-27 12:53:00,
2013-01-27 07:58:00,54.4,53.3,30.27,NE,35,0.0,1.0,96,0.00,,SKC,0.01,VWS V14.01,2013-01-27 12:58:00,
2013-01-27 08:03:00,54.4,53.3,30.27,NE,35,1.0,1.0,96,0.00,,SKC,0.01,VWS V14.01,2013-01-27 13:03:00,
2013-01-27 08:08:00,54.4,53.3,30.27,NE,35,0.0,0.0,96,0.00,,SKC,0.01,VWS V14.01,2013-01-27 13:08:00,
2013-01-27 08:13:00,54.7,53.6,30.27,NE,35,0.0,0.0,96,0.00,,SKC,0.01,VWS V14.01,2013-01-27 13:13:00,
2013-01-27 08:18:00,55.1,54.3,30.28,NE,35,0.0,1.0,97,0.00,,SKC,0.01,VWS V14.01,2013-01-27 13:18:00,
2013-01-27 08:23:00,55.5,54.7,30.28,NE,35,4.0,4.0,97,0.00,,SKC,0.01,VWS V14.01,2013-01-27 13:23:00,
2013-01-27 08:28:00,55.8,55.0,30.28,NE,35,2.0,3.0,97,0.00,,SKC,0.01,VWS V14.01,2013-01-27 13:28:00,
2013-01-27 08:33:00,56.2,55.4,30.28,NE,35,1.0,3.0,97,0.00,,SKC,0.01,VWS V14.01,2013-01-27 13:33:00,
2013-01-27 08:38:00,57.0,56.2,30.28,NE,38,0.0,2.0,97,0.00,,SKC,0.01,VWS V14.01,2013-01-27 13:38:00,
2013-01-27 08:43:00,57.5,56.7,30.29,NW,315,2.0,2.0,97,0.00,,SKC,0.01,VWS V14.01,2013-01-27 13:43:00,
2013-01-27 08:48:00,57.8,57.0,30.29,NW,315,1.0,3.0,97,0.00,,SKC,0.01,VWS V14.01,2013-01-27 13:48:00,
2013-01-27 08:53:00,58.3,57.5,30.29,NW,315,2.0,3.0,97,0.00,,SKC,0.01,VWS V14.01,2013-01-27 13:53:00,
2013-01-27 08:58:00,58.7,57.8,30.29,NE,44,3.0,4.0,97,0.00,,SKC,0.01,VWS V14.01,2013-01-27 13:58:00,
2013-01-27 09:03:00,58.8,58.0,30.29,North,360,2.0,6.0,97,0.00,,SKC,0.01,VWS V14.01,2013-01-27 14:03:00,
2013-01-27 09:08:00,58.7,57.8,30.29,NE,34,2.0,4.0,97,0.00,,SKC,0.01,VWS V14.01,2013-01-27 14:08:00,
2013-01-27 09:13:00,58.7,57.8,30.29,NE,37,2.0,5.0,97,0.00,,SKC,0.01,VWS V14.01,2013-01-27 14:13:00,
2013-01-27 09:18:00,58.8,58.0,30.30,NNE,14,7.0,7.0,97,0.00,,SKC,0.01,VWS V14.01,2013-01-27 14:18:00,
2013-01-27 09:23:00,58.9,58.0,30.30,NNE,20,4.0,6.0,97,0.00,,SKC,0.01,VWS V14.01,2013-01-27 14:23:00,
2013-01-27 09:28:00,59.3,58.5,30.29,NNE,33,3.0,8.0,97,0.00,,SKC,0.01,VWS V14.01,2013-01-27 14:28:00,
2013-01-27 09:33:00,59.6,58.8,30.30,NNE,29,4.0,6.0,97,0.00,,SKC,0.01,VWS V14.01,2013-01-27 14:33:00,
2013-01-27 09:38:00,60.1,59.2,30.30,NE,50,4.0,4.0,97,0.00,,SKC,0.01,VWS V14.01,2013-01-27 14:38:00,
2013-01-27 09:43:00,60.5,59.7,30.30,NNE,30,3.0,5.0,97,0.00,,SKC,0.01,VWS V14.01,2013-01-27 14:43:00,
2013-01-27 09:48:00,61.1,60.2,30.30,North,11,4.0,6.0,97,0.00,,SKC,0.01,VWS V14.01,2013-01-27 14:48:00,
2013-01-27 09:53:00,61.8,60.7,30.30,ENE,67,5.0,8.0,96,0.00,,SKC,0.01,VWS V14.01,2013-01-27 14:53:00,
2013-01-27 09:58:00,62.6,61.2,30.31,ENE,61,3.0,5.0,95,0.00,,SKC,0.01,VWS V14.01,2013-01-27 14:58:00,
2013-01-27 10:03:00,63.2,61.2,30.31,NE,43,2.0,5.0,93,0.00,,SKC,0.01,VWS V14.01,2013-01-27 15:03:00,
2013-01-27 10:08:00,64.0,61.3,30.31,ENE,67,3.0,5.0,91,0.00,,SKC,0.01,VWS V14.01,2013-01-27 15:08:00,
2013-01-27 10:13:00,64.9,61.3,30.31,ENE,57,3.0,5.0,88,0.00,,SKC,0.01,VWS V14.01,2013-01-27 15:13:00,
2013-01-27 10:18:00,65.6,61.0,30.31,NNE,22,7.0,8.0,85,0.00,,SKC,0.01,VWS V14.01,2013-01-27 15:18:00,
2013-01-27 10:23:00,65.9,60.9,30.31,NE,35,5.0,6.0,84,0.00,,SKC,0.01,VWS V14.01,2013-01-27 15:23:00,
2013-01-27 10:28:00,66.5,61.2,30.31,NE,46,2.0,7.0,83,0.00,,SKC,0.01,VWS V14.01,2013-01-27 15:28:00,
2013-01-27 10:33:00,67.2,61.2,30.31,East,101,5.0,5.0,81,0.00,,SKC,0.01,VWS V14.01,2013-01-27 15:33:00,
2013-01-27 10:38:00,67.4,60.3,30.31,NE,51,5.0,6.0,78,0.00,,SKC,0.01,VWS V14.01,2013-01-27 15:38:00,
2013-01-27 10:43:00,67.7,59.9,30.31,ENE,60,3.0,8.0,76,0.00,,SKC,0.01,VWS V14.01,2013-01-27 15:43:00,
2013-01-27 10:48:00,68.0,59.4,30.31,NNE,18,4.0,9.0,74,0.00,,SKC,0.01,VWS V14.01,2013-01-27 15:48:00,
2013-01-27 10:53:00,68.3,58.9,30.31,NNE,26,6.0,8.0,72,0.00,,SKC,0.01,VWS V14.01,2013-01-27 15:53:00,
2013-01-27 10:58:00,68.8,59.4,30.31,East,83,5.0,7.0,72,0.00,,SKC,0.01,VWS V14.01,2013-01-27 15:58:00,
2013-01-27 11:03:00,69.1,59.3,30.31,NE,40,3.0,5.0,71,0.00,,SKC,0.01,VWS V14.01,2013-01-27 16:03:00,
2013-01-27 11:08:00,69.3,59.5,30.30,East,88,7.0,8.0,71,0.00,,SKC,0.01,VWS V14.01,2013-01-27 16:08:00,
2013-01-27 11:13:00,69.3,58.7,30.30,NE,38,5.0,10.0,69,0.00,,SKC,0.01,VWS V14.01,2013-01-27 16:13:00,
2013-01-27 11:18:00,69.4,58.4,30.30,NE,40,5.0,8.0,68,0.00,,SKC,0.01,VWS V14.01,2013-01-27 16:18:00,
2013-01-27 11:23:00,69.7,58.3,30.30,NNE,18,5.0,9.0,67,0.00,,SKC,0.01,VWS V14.01,2013-01-27 16:23:00,
2013-01-27 11:28:00,70.0,58.5,30.30,ENE,63,4.0,5.0,67,0.00,,SKC,0.01,VWS V14.01,2013-01-27 16:28:00,
2013-01-27 11:33:00,70.3,58.4,30.30,ENE,74,3.0,6.0,66,0.00,,SKC,0.01,VWS V14.01,2013-01-27 16:33:00,
2013-01-27 11:38:00,70.7,57.9,30.30,ENE,71,5.0,11.0,64,0.00,,SKC,0.01,VWS V14.01,2013-01-27 16:38:00,
2013-01-27 11:43:00,70.8,57.6,30.29,NNE,24,6.0,9.0,63,0.00,,SKC,0.01,VWS V14.01,2013-01-27 16:43:00,
2013-01-27 11:48:00,71.0,58.2,30.29,East,96,3.0,8.0,64,0.00,,SKC,0.01,VWS V14.01,2013-01-27 16:48:00,
2013-01-27 11:53:00,71.4,57.7,30.29,East,95,5.0,11.0,62,0.00,,SKC,0.01,VWS V14.01,2013-01-27 16:53:00,
2013-01-27 11:58:00,71.6,57.5,30.29,NE,52,3.0,8.0,61,0.00,,SKC,0.01,VWS V14.01,2013-01-27 16:58:00,
2013-01-27 12:03:00,72.4,58.7,30.28,East,81,6.0,7.0,62,0.00,,SKC,0.01,VWS V14.01,2013-01-27 17:03:00,
2013-01-27 12:08:00,72.7,58.0,30.28,NNE,32,5.0,10.0,60,0.00,,SKC,0.01,VWS V14.01,2013-01-27 17:08:00,
2013-01-27 12:13:00,72.4,58.2,30.28,ENE,77,11.0,11.0,61,0.00,,SKC,0.01,VWS V14.01,2013-01-27 17:13:00,
2013-01-27 12:18:00,72.6,58.4,30.28,East,86,8.0,9.0,61,0.00,,SKC,0.01,VWS V14.01,2013-01-27 17:18:00,
2013-01-27 12:23:00,72.9,57.8,30.27,ENE,67,5.0,10.0,59,0.00,,SKC,0.01,VWS V14.01,2013-01-27 17:23:00,
2013-01-27 12:28:00,73.2,57.5,30.27,ENE,71,7.0,11.0,58,0.00,,SKC,0.01,VWS V14.01,2013-01-27 17:28:00,
2013-01-27 12:33:00,73.4,57.3,30.27,East,80,6.0,13.0,57,0.00,,SKC,0.01,VWS V14.01,2013-01-27 17:33:00,
2013-01-27 12:38:00,72.9,57.8,30.27,ESE,108,5.0,11.0,59,0.00,,SKC,0.01,VWS V14.01,2013-01-27 17:38:00,
2013-01-27 12:43:00,73.0,57.4,30.26,ENE,66,5.0,11.0,58,0.00,,SKC,0.01,VWS V14.01,2013-01-27 17:43:00,
2013-01-27 12:48:00,73.4,56.8,30.26,ESE,119,8.0,10.0,56,0.00,,SKC,0.01,VWS V14.01,2013-01-27 17:48:00,
2013-01-27 12:53:00,73.7,56.5,30.26,East,90,5.0,10.0,55,0.00,,SKC,0.01,VWS V14.01,2013-01-27 17:53:00,
2013-01-27 12:58:00,73.9,55.7,30.26,East,101,5.0,10.0,53,0.00,,SKC,0.01,VWS V14.01,2013-01-27 17:58:00,
2013-01-27 13:03:00,73.8,56.1,30.25,East,95,7.0,10.0,54,0.00,,SKC,0.01,VWS V14.01,2013-01-27 18:03:00,
2013-01-27 13:08:00,73.8,56.6,30.25,ENE,63,2.0,8.0,55,0.00,,SKC,0.01,VWS V14.01,2013-01-27 18:08:00,
2013-01-27 13:13:00,74.3,56.6,30.25,ENE,78,9.0,10.0,54,0.00,,SKC,0.01,VWS V14.01,2013-01-27 18:13:00,
2013-01-27 13:18:00,74.4,55.7,30.25,NE,45,4.0,10.0,52,0.00,,SKC,0.01,VWS V14.01,2013-01-27 18:18:00,
2013-01-27 13:23:00,74.3,56.1,30.24,ESE,109,4.0,12.0,53,0.00,,SKC,0.01,VWS V14.01,2013-01-27 18:23:00,
2013-01-27 13:28:00,74.6,55.8,30.24,East,79,6.0,10.0,52,0.00,,SKC,0.01,VWS V14.01,2013-01-27 18:28:00,
2013-01-27 13:33:00,74.7,55.9,30.24,ESE,115,4.0,11.0,52,0.00,,SKC,0.01,VWS V14.01,2013-01-27 18:33:00,
2013-01-27 13:38:00,74.5,55.2,30.24,ESE,110,7.0,8.0,51,0.00,,SKC,0.01,VWS V14.01,2013-01-27 18:38:00,
2013-01-27 13:43:00,74.6,55.3,30.24,ENE,71,3.0,9.0,51,0.00,,SKC,0.01,VWS V14.01,2013-01-27 18:43:00,
2013-01-27 13:48:00,75.2,55.8,30.24,East,80,9.0,9.0,51,0.00,,SKC,0.01,VWS V14.01,2013-01-27 18:48:00,
2013-01-27 13:53:00,75.1,55.8,30.24,East,94,3.0,11.0,51,0.00,,SKC,0.01,VWS V14.01,2013-01-27 18:53:00,
2013-01-27 13:58:00,75.1,55.8,30.24,ESE,113,4.0,8.0,51,0.00,,SKC,0.01,VWS V14.01,2013-01-27 18:58:00,
2013-01-27 14:03:00,75.1,56.3,30.24,ESE,107,9.0,12.0,52,0.00,,SKC,0.01,VWS V14.01,2013-01-27 19:03:00,
2013-01-27 14:08:00,74.8,56.5,30.23,SE,131,5.0,9.0,53,0.00,,SKC,0.01,VWS V14.01,2013-01-27 19:08:00,
2013-01-27 14:13:00,75.5,56.1,30.23,East,88,6.0,10.0,51,0.00,,SKC,0.01,VWS V14.01,2013-01-27 19:13:00,
2013-01-27 14:18:00,75.4,56.6,30.23,East,93,8.0,10.0,52,0.00,,SKC,0.01,VWS V14.01,2013-01-27 19:18:00,
2013-01-27 14:23:00,75.1,56.8,30.23,East,98,9.0,11.0,53,0.00,,SKC,0.01,VWS V14.01,2013-01-27 19:23:00,
2013-01-27 14:28:00,75.3,55.9,30.23,East,95,6.0,10.0,51,0.00,,SKC,0.01,VWS V14.01,2013-01-27 19:28:00,
2013-01-27 14:33:00,75.9,56.5,30.23,ENE,63,3.0,9.0,51,0.00,,SKC,0.01,VWS V14.01,2013-01-27 19:33:00,
2013-01-27 14:38:00,75.9,56.0,30.23,ENE,60,4.0,11.0,50,0.00,,SKC,0.01,VWS V14.01,2013-01-27 19:38:00,
2013-01-27 14:43:00,76.0,56.0,30.22,ENE,78,5.0,7.0,50,0.00,,SKC,0.01,VWS V14.01,2013-01-27 19:43:00,
2013-01-27 14:48:00,76.2,55.7,30.23,ESE,110,4.0,9.0,49,0.00,,SKC,0.01,VWS V14.01,2013-01-27 19:48:00,
2013-01-27 14:53:00,76.1,56.1,30.22,East,96,6.0,9.0,50,0.00,,SKC,0.01,VWS V14.01,2013-01-27 19:53:00,
2013-01-27 14:58:00,76.1,56.1,30.22,ENE,69,5.0,11.0,50,0.00,,SKC,0.01,VWS V14.01,2013-01-27 19:58:00,
2013-01-27 15:03:00,76.1,56.1,30.22,East,86,5.0,10.0,50,0.00,,SKC,0.01,VWS V14.01,2013-01-27 20:03:00,
2013-01-27 15:08:00,76.2,56.2,30.22,ENE,76,10.0,11.0,50,0.00,,SKC,0.01,VWS V14.01,2013-01-27 20:08:00,
2013-01-27 15:13:00,76.2,56.2,30.22,ENE,76,8.0,10.0,50,0.00,,SKC,0.01,VWS V14.01,2013-01-27 20:13:00,
2013-01-27 15:18:00,76.2,56.2,30.22,SE,126,5.0,9.0,50,0.00,,SKC,0.01,VWS V14.01,2013-01-27 20:18:00,
2013-01-27 15:23:00,76.6,56.6,30.22,East,98,7.0,10.0,50,0.00,,SKC,0.01,VWS V14.01,2013-01-27 20:23:00,
2013-01-27 15:28:00,76.6,56.6,30.22,ESE,107,4.0,11.0,50,0.00,,SKC,0.01,VWS V14.01,2013-01-27 20:28:00,
2013-01-27 15:33:00,76.6,56.6,30.22,ESE,116,9.0,11.0,50,0.00,,SKC,0.01,VWS V14.01,2013-01-27 20:33:00,
2013-01-27 15:38:00,76.6,57.1,30.22,East,101,3.0,8.0,51,0.00,,SKC,0.01,VWS V14.01,2013-01-27 20:38:00,
2013-01-27 15:43:00,76.8,56.2,30.22,East,99,9.0,11.0,49,0.00,,SKC,0.01,VWS V14.01,2013-01-27 20:43:00,
2013-01-27 15:48:00,76.5,55.9,30.22,East,90,6.0,9.0,49,0.00,,SKC,0.01,VWS V14.01,2013-01-27 20:48:00,
2013-01-27 15:53:00,76.7,57.2,30.21,ENE,73,3.0,5.0,51,0.00,,SKC,0.01,VWS V14.01,2013-01-27 20:53:00,
2013-01-27 15:58:00,76.9,55.7,30.22,NE,55,7.0,13.0,48,0.00,,SKC,0.01,VWS V14.01,2013-01-27 20:58:00,
2013-01-27 16:03:00,76.5,55.4,30.22,ENE,62,8.0,8.0,48,0.00,,SKC,0.01,VWS V14.01,2013-01-27 21:03:00,
2013-01-27 16:08:00,76.5,55.9,30.22,ENE,70,7.0,10.0,49,0.00,,SKC,0.01,VWS V14.01,2013-01-27 21:08:00,
2013-01-27 16:13:00,76.6,56.0,30.22,ESE,111,11.0,11.0,49,0.00,,SKC,0.01,VWS V14.01,2013-01-27 21:13:00,
2013-01-27 16:18:00,76.2,56.2,30.22,East,82,6.0,9.0,50,0.00,,SKC,0.01,VWS V14.01,2013-01-27 21:18:00,
2013-01-27 16:23:00,76.2,56.8,30.22,East,84,3.0,11.0,51,0.00,,SKC,0.01,VWS V14.01,2013-01-27 21:23:00,
2013-01-27 16:28:00,76.1,56.7,30.22,East,91,8.0,14.0,51,0.00,,SKC,0.01,VWS V14.01,2013-01-27 21:28:00,
2013-01-27 16:33:00,75.9,57.0,30.22,East,93,6.0,8.0,52,0.00,,SKC,0.01,VWS V14.01,2013-01-27 21:33:00,
2013-01-27 16:38:00,75.8,56.9,30.22,ENE,59,5.0,14.0,52,0.00,,SKC,0.01,VWS V14.01,2013-01-27 21:38:00,
2013-01-27 16:43:00,75.8,56.9,30.22,ENE,68,4.0,11.0,52,0.00,,SKC,0.01,VWS V14.01,2013-01-27 21:43:00,
2013-01-27 16:48:00,75.8,56.9,30.23,East,94,10.0,13.0,52,0.00,,SKC,0.01,VWS V14.01,2013-01-27 21:48:00,
2013-01-27 16:53:00,75.7,56.3,30.23,East,94,7.0,10.0,51,0.00,,SKC,0.01,VWS V14.01,2013-01-27 21:53:00,
2013-01-27 16:58:00,75.7,55.8,30.23,ENE,65,8.0,10.0,50,0.00,,SKC,0.01,VWS V14.01,2013-01-27 21:58:00,
2013-01-27 17:03:00,75.7,55.2,30.23,ENE,60,10.0,14.0,49,0.00,,SKC,0.01,VWS V14.01,2013-01-27 22:03:00,
2013-01-27 17:08:00,75.6,55.7,30.23,ESE,107,7.0,11.0,50,0.00,,SKC,0.01,VWS V14.01,2013-01-27 22:08:00,
2013-01-27 17:13:00,75.5,56.1,30.23,ENE,64,9.0,12.0,51,0.00,,SKC,0.01,VWS V14.01,2013-01-27 22:13:00,
2013-01-27 17:18:00,75.3,55.9,30.23,ENE,70,5.0,11.0,51,0.00,,SKC,0.01,VWS V14.01,2013-01-27 22:18:00,
2013-01-27 17:23:00,75.2,56.4,30.23,East,87,7.0,8.0,52,0.00,,SKC,0.01,VWS V14.01,2013-01-27 22:23:00,
2013-01-27 17:28:00,75.0,56.7,30.24,ENE,71,5.0,9.0,53,0.00,,SKC,0.01,VWS V14.01,2013-01-27 22:28:00,
2013-01-27 17:33:00,74.8,57.6,30.24,East,86,7.0,8.0,55,0.00,,SKC,0.01,VWS V14.01,2013-01-27 22:33:00,
2013-01-27 17:38:00,74.4,57.7,30.24,East,93,8.0,9.0,56,0.00,,SKC,0.01,VWS V14.01,2013-01-27 22:38:00,
2013-01-27 17:43:00,74.1,57.4,30.25,East,92,8.0,9.0,56,0.00,,SKC,0.01,VWS V14.01,2013-01-27 22:43:00,
2013-01-27 17:48:00,73.8,57.6,30.25,East,86,6.0,9.0,57,0.00,,SKC,0.01,VWS V14.01,2013-01-27 22:48:00,
2013-01-27 17:53:00,73.5,57.8,30.25,ESE,103,5.0,7.0,58,0.00,,SKC,0.01,VWS V14.01,2013-01-27 22:53:00,
2013-01-27 17:58:00,73.1,57.5,30.25,East,84,5.0,8.0,58,0.00,,SKC,0.01,VWS V14.01,2013-01-27 22:58:00,
2013-01-27 18:03:00,72.9,57.8,30.25,East,92,7.0,9.0,59,0.00,,SKC,0.01,VWS V14.01,2013-01-27 23:03:00,
2013-01-27 18:08:00,72.6,57.9,30.25,East,92,5.0,7.0,60,0.00,,SKC,0.01,VWS V14.01,2013-01-27 23:08:00,
2013-01-27 18:13:00,72.2,58.0,30.25,ENE,73,4.0,7.0,61,0.00,,SKC,0.01,VWS V14.01,2013-01-27 23:13:00,
2013-01-27 18:18:00,72.0,58.3,30.25,East,86,6.0,8.0,62,0.00,,SKC,0.01,VWS V14.01,2013-01-27 23:18:00,
2013-01-27 18:23:00,71.7,58.0,30.25,ESE,102,7.0,9.0,62,0.00,,SKC,0.01,VWS V14.01,2013-01-27 23:23:00,
2013-01-27 18:28:00,71.4,58.2,30.26,ENE,65,4.0,8.0,63,0.00,,SKC,0.01,VWS V14.01,2013-01-27 23:28:00,
2013-01-27 18:33:00,71.2,58.4,30.26,East,95,3.0,7.0,64,0.00,,SKC,0.01,VWS V14.01,2013-01-27 23:33:00,
2013-01-27 18:38:00,70.9,58.1,30.26,ENE,78,5.0,9.0,64,0.00,,SKC,0.01,VWS V14.01,2013-01-27 23:38:00,
2013-01-27 18:43:00,70.6,58.3,30.26,East,80,5.0,8.0,65,0.00,,SKC,0.01,VWS V14.01,2013-01-27 23:43:00,
2013-01-27 18:48:00,70.4,58.1,30.26,ENE,75,4.0,6.0,65,0.00,,SKC,0.01,VWS V14.01,2013-01-27 23:48:00,
2013-01-27 18:53:00,70.1,58.7,30.27,East,90,5.0,7.0,67,0.00,,SKC,0.01,VWS V14.01,2013-01-27 23:53:00,
2013-01-27 18:58:00,69.8,58.4,30.27,ENE,76,4.0,6.0,67,0.00,,SKC,0.01,VWS V14.01,2013-01-27 23:58:00,
2013-01-27 19:03:00,69.6,58.2,30.27,East,96,6.0,7.0,67,0.00,,SKC,0.01,VWS V14.01,2013-01-28 00:03:00,
2013-01-27 19:08:00,69.3,57.9,30.27,East,94,5.0,8.0,67,0.00,,SKC,0.01,VWS V14.01,2013-01-28 00:08:00,
2013-01-27 19:13:00,69.2,57.8,30.27,East,80,3.0,7.0,67,0.00,,SKC,0.01,VWS V14.01,2013-01-28 00:13:00,
2013-01-27 19:18:00,69.1,58.1,30.27,ENE,64,3.0,8.0,68,0.00,,SKC,0.01,VWS V14.01,2013-01-28 00:18:00,
2013-01-27 19:23:00,68.9,57.9,30.27,East,100,6.0,8.0,68,0.00,,SKC,0.01,VWS V14.01,2013-01-28 00:23:00,
2013-01-27 19:28:00,68.7,58.1,30.28,East,82,6.0,7.0,69,0.00,,SKC,0.01,VWS V14.01,2013-01-28 00:28:00,
2013-01-27 19:33:00,68.5,58.3,30.28,East,80,6.0,7.0,70,0.00,,SKC,0.01,VWS V14.01,2013-01-28 00:33:00,
2013-01-27 19:38:00,68.3,58.2,30.28,East,86,5.0,7.0,70,0.00,,SKC,0.01,VWS V14.01,2013-01-28 00:38:00,
2013-01-27 19:43:00,68.0,58.3,30.28,East,99,3.0,6.0,71,0.00,,SKC,0.01,VWS V14.01,2013-01-28 00:43:00,
2013-01-27 19:48:00,67.9,58.5,30.28,East,83,6.0,7.0,72,0.00,,SKC,0.01,VWS V14.01,2013-01-28 00:48:00,
2013-01-27 19:53:00,67.6,58.3,30.28,ENE,77,5.0,6.0,72,0.00,,SKC,0.01,VWS V14.01,2013-01-28 00:53:00,
2013-01-27 19:58:00,67.4,58.5,30.28,East,90,5.0,6.0,73,0.00,,SKC,0.01,VWS V14.01,2013-01-28 00:58:00,
2013-01-27 20:03:00,67.3,58.7,30.28,East,81,3.0,7.0,74,0.00,,SKC,0.01,VWS V14.01,2013-01-28 01:03:00,
2013-01-27 20:08:00,67.2,59.0,30.28,East,80,5.0,6.0,75,0.00,,SKC,0.01,VWS V14.01,2013-01-28 01:08:00,
2013-01-27 20:13:00,67.0,58.8,30.28,ENE,63,3.0,6.0,75,0.00,,SKC,0.01,VWS V14.01,2013-01-28 01:13:00,
2013-01-27 20:18:00,66.9,59.1,30.28,East,86,3.0,7.0,76,0.00,,SKC,0.01,VWS V14.01,2013-01-28 01:18:00,
2013-01-27 20:23:00,66.8,59.4,30.28,East,86,6.0,6.0,77,0.00,,SKC,0.01,VWS V14.01,2013-01-28 01:23:00,
2013-01-27 20:28:00,66.6,59.5,30.28,East,86,3.0,5.0,78,0.00,,SKC,0.01,VWS V14.01,2013-01-28 01:28:00,
2013-01-27 20:33:00,66.4,59.3,30.29,ENE,69,4.0,4.0,78,0.00,,SKC,0.01,VWS V14.01,2013-01-28 01:33:00,
2013-01-27 20:38:00,66.2,59.5,30.29,ENE,73,4.0,5.0,79,0.00,,SKC,0.01,VWS V14.01,2013-01-28 01:38:00,
2013-01-27 20:43:00,66.0,59.7,30.29,NE,55,5.0,7.0,80,0.00,,SKC,0.01,VWS V14.01,2013-01-28 01:43:00,
2013-01-27 20:48:00,65.9,59.6,30.29,ENE,67,3.0,5.0,80,0.00,,SKC,0.01,VWS V14.01,2013-01-28 01:48:00,
2013-01-27 20:53:00,65.7,59.7,30.29,ENE,69,3.0,5.0,81,0.00,,SKC,0.01,VWS V14.01,2013-01-28 01:53:00,
2013-01-27 20:58:00,65.5,59.9,30.29,ENE,78,3.0,4.0,82,0.00,,SKC,0.01,VWS V14.01,2013-01-28 01:58:00,
2013-01-27 21:03:00,65.2,59.9,30.29,ENE,75,2.0,5.0,83,0.00,,SKC,0.01,VWS V14.01,2013-01-28 02:03:00,
2013-01-27 21:08:00,65.0,59.7,30.29,East,80,5.0,6.0,83,0.00,,SKC,0.01,VWS V14.01,2013-01-28 02:08:00,
2013-01-27 21:13:00,65.0,60.0,30.29,ENE,69,4.0,5.0,84,0.00,,SKC,0.01,VWS V14.01,2013-01-28 02:13:00,
2013-01-27 21:18:00,65.0,60.0,30.29,ENE,59,2.0,4.0,84,0.00,,SKC,0.01,VWS V14.01,2013-01-28 02:18:00,
2013-01-27 21:23:00,64.9,60.0,30.29,ENE,71,3.0,5.0,84,0.00,,SKC,0.01,VWS V14.01,2013-01-28 02:23:00,
2013-01-27 21:28:00,64.8,60.2,30.29,ENE,67,3.0,4.0,85,0.00,,SKC,0.01,VWS V14.01,2013-01-28 02:28:00,
2013-01-27 21:33:00,64.7,60.1,30.29,ENE,68,2.0,4.0,85,0.00,,SKC,0.01,VWS V14.01,2013-01-28 02:33:00,
2013-01-27 21:38:00,64.5,59.9,30.29,East,79,1.0,4.0,85,0.00,,SKC,0.01,VWS V14.01,2013-01-28 02:38:00,
2013-01-27 21:43:00,64.3,60.0,30.29,East,85,1.0,3.0,86,0.00,,SKC,0.01,VWS V14.01,2013-01-28 02:43:00,
2013-01-27 21:48:00,64.2,59.9,30.29,ENE,67,1.0,3.0,86,0.00,,SKC,0.01,VWS V14.01,2013-01-28 02:48:00,
2013-01-27 21:53:00,64.1,60.2,30.29,ENE,71,2.0,4.0,87,0.00,,SKC,0.01,VWS V14.01,2013-01-28 02:53:00,
2013-01-27 21:58:00,64.0,60.1,30.29,ENE,70,1.0,4.0,87,0.00,,SKC,0.01,VWS V14.01,2013-01-28 02:58:00,
2013-01-27 22:03:00,64.0,60.1,30.29,ENE,66,1.0,4.0,87,0.00,,SKC,0.01,VWS V14.01,2013-01-28 03:03:00,
2013-01-27 22:08:00,64.0,60.1,30.29,ENE,68,3.0,3.0,87,0.00,,SKC,0.01,VWS V14.01,2013-01-28 03:08:00,
2013-01-27 22:13:00,63.9,60.3,30.29,ENE,74,3.0,4.0,88,0.00,,SKC,0.01,VWS V14.01,2013-01-28 03:13:00,
2013-01-27 22:18:00,63.9,60.3,30.29,ENE,69,4.0,4.0,88,0.00,,SKC,0.01,VWS V14.01,2013-01-28 03:18:00,
2013-01-27 22:23:00,63.9,60.3,30.29,ENE,69,2.0,4.0,88,0.00,,SKC,0.01,VWS V14.01,2013-01-28 03:23:00,
2013-01-27 22:28:00,63.8,60.2,30.29,ENE,74,3.0,3.0,88,0.00,,SKC,0.01,VWS V14.01,2013-01-28 03:28:00,
2013-01-27 22:33:00,63.8,60.5,30.29,ENE,66,3.0,4.0,89,0.00,,SKC,0.01,VWS V14.01,2013-01-28 03:33:00,
2013-01-27 22:38:00,63.7,60.4,30.29,ENE,69,2.0,4.0,89,0.00,,SKC,0.01,VWS V14.01,2013-01-28 03:38:00,
2013-01-27 22:43:00,63.7,60.4,30.29,ENE,58,4.0,5.0,89,0.00,,SKC,0.01,VWS V14.01,2013-01-28 03:43:00,
2013-01-27 22:48:00,63.7,60.4,30.29,ENE,71,4.0,4.0,89,0.00,,SKC,0.01,VWS V14.01,2013-01-28 03:48:00,
2013-01-27 22:53:00,63.6,60.6,30.29,ENE,67,2.0,5.0,90,0.00,,SKC,0.01,VWS V14.01,2013-01-28 03:53:00,
2013-01-27 22:58:00,63.5,60.5,30.29,ENE,61,2.0,6.0,90,0.00,,SKC,0.01,VWS V14.01,2013-01-28 03:58:00,
2013-01-27 23:03:00,63.5,60.5,30.29,ENE,65,4.0,4.0,90,0.00,,SKC,0.01,VWS V14.01,2013-01-28 04:03:00,
2013-01-27 23:08:00,63.5,60.8,30.29,ENE,69,2.0,5.0,91,0.00,,SKC,0.01,VWS V14.01,2013-01-28 04:08:00,
2013-01-27 23:13:00,63.4,60.7,30.29,ENE,67,4.0,4.0,91,0.00,,SKC,0.01,VWS V14.01,2013-01-28 04:13:00,
2013-01-27 23:18:00,63.2,60.5,30.29,ENE,63,2.0,4.0,91,0.00,,SKC,0.01,VWS V14.01,2013-01-28 04:18:00,
2013-01-27 23:23:00,63.2,60.5,30.28,ENE,63,2.0,5.0,91,0.00,,SKC,0.01,VWS V14.01,2013-01-28 04:23:00,
2013-01-27 23:28:00,63.3,60.9,30.28,East,79,2.0,6.0,92,0.00,,SKC,0.01,VWS V14.01,2013-01-28 04:28:00,
2013-01-27 23:33:00,63.2,60.8,30.28,ENE,74,2.0,5.0,92,0.00,,SKC,0.01,VWS V14.01,2013-01-28 04:33:00,
2013-01-27 23:38:00,63.1,60.7,30.28,East,87,3.0,5.0,92,0.00,,SKC,0.01,VWS V14.01,2013-01-28 04:38:00,
2013-01-27 23:43:00,63.0,60.6,30.28,East,80,3.0,5.0,92,0.00,,SKC,0.01,VWS V14.01,2013-01-28 04:43:00,
2013-01-27 23:48:00,62.9,60.5,30.28,ENE,67,3.0,5.0,92,0.00,,SKC,0.01,VWS V14.01,2013-01-28 04:48:00,
2013-01-27 23:53:00,62.9,60.5,30.28,ENE,73,2.0,5.0,92,0.00,,SKC,0.01,VWS V14.01,2013-01-28 04:53:00,
2013-01-27 23:58:00,62.9,60.8,30.28,ENE,70,2.0,5.0,93,0.00,,SKC,0.01,VWS V14.01,2013-01-28 04:58:00,